This is the latest recevied weather packets stored in our database for station/object OE-11399. If no packets are shown the sender has not sent any weather packets the latest 10 day(s).
| Time | Temp. | Humidity | Pressure | Rain* | Wind** | Luminosity | Snow |
|---|---|---|---|---|---|---|---|
| 1787936726 | 26.67° C | 48% | 850.9 hPa | 0 mm | - | 29 W/m² | - |
| 1787936126 | 27.22° C | 44% | 850.9 hPa | 0 mm | - | 51 W/m² | - |
| 1787935300 | 27.22° C | 46% | 851.2 hPa | 0 mm | - | 81 W/m² | - |
| 1787934927 | 27.22° C | 48% | 851.2 hPa | 0 mm | - | 103 W/m² | - |
| 1787934327 | 27.78° C | 40% | 851.2 hPa | 0 mm | - | 95 W/m² | - |
| 1787933500 | 27.78° C | 41% | 851.3 hPa | 0 mm | - | 110 W/m² | - |
| 1787933127 | 27.78° C | 46% | 851.4 hPa | 0 mm | - | 110 W/m² | - |
| 1787932527 | 28.33° C | 43% | 851.7 hPa | 0 mm | - | 110 W/m² | - |
| 1787931700 | 28.89° C | 40% | 851.8 hPa | 0 mm | - | 169 W/m² | - |
| 1787931327 | 29.44° C | 38% | 851.9 hPa | 0 mm | - | 154 W/m² | - |
| 1787930727 | 29.44° C | 38% | 851.9 hPa | 0 mm | - | 183 W/m² | - |
| 1787929900 | 30.56° C | 35% | 852.2 hPa | 0 mm | - | 345 W/m² | - |
| 1787929527 | 30.56° C | 35% | 852.2 hPa | 0 mm | - | 389 W/m² | - |
| 1787928926 | 30° C | 39% | 852.1 hPa | 0 mm | - | 323 W/m² | - |
| 1787928100 | 30° C | 38% | 852.2 hPa | 0 mm | - | 301 W/m² | - |
| 1787927726 | 30.56° C | 40% | 852.4 hPa | 0 mm | - | 301 W/m² | - |
| 1787927126 | 30.56° C | 39% | 852.4 hPa | 0 mm | - | 352 W/m² | - |
| 1787926300 | 30° C | 38% | 852.4 hPa | 0 mm | - | 367 W/m² | - |
| 1787925927 | 29.44° C | 45% | 852.4 hPa | 0 mm | - | 352 W/m² | - |
| 1787925327 | 29.44° C | 40% | 852.7 hPa | 0 mm | - | 330 W/m² | - |
| 1787924500 | 28.89° C | 45% | 852.5 hPa | 0 mm | - | 374 W/m² | - |
| 1787924127 | 28.33° C | 46% | 852.6 hPa | 0 mm | - | 323 W/m² | - |
| 1787923527 | 28.33° C | 44% | 852.6 hPa | 0 mm | - | 176 W/m² | - |
| 1787922698 | 28.33° C | 47% | 852.7 hPa | 0 mm | - | 293 W/m² | - |
| 1787922326 | 27.78° C | 50% | 852.6 hPa | 0 mm | - | 213 W/m² | - |
* Rain latest hour (hover to see other rain measurements)
** Current wind speed in m/s (hover to see current wind gust speed)